createdAt,value
2022-10-18T00:01:51.128Z,5.10
2022-10-18T00:04:19.637Z,4.35
2022-10-18T00:06:47.762Z,4.18
2022-10-18T00:09:16.161Z,3.97
2022-10-18T00:11:44.632Z,4.07
2022-10-18T00:14:14.207Z,3.88
2022-10-18T00:16:42.459Z,3.75
2022-10-18T00:19:10.690Z,4.03
2022-10-18T00:21:39.068Z,3.65
2022-10-18T00:24:07.979Z,4.22
2022-10-18T00:26:36.614Z,3.72
2022-10-18T00:29:07.069Z,3.60
2022-10-18T00:31:38.584Z,3.70
2022-10-18T00:34:08.634Z,3.75
2022-10-18T00:36:36.893Z,3.55
2022-10-18T00:39:07.128Z,3.30
2022-10-18T00:41:37.984Z,3.85
2022-10-18T00:44:08.341Z,3.60
2022-10-18T00:46:39.468Z,3.90
2022-10-18T00:49:11.694Z,3.35
2022-10-18T00:51:44.265Z,3.33
2022-10-18T00:54:13.582Z,3.33
2022-10-18T00:56:41.913Z,3.53
2022-10-18T00:59:10.249Z,3.30
2022-10-18T01:01:39.865Z,3.85
2022-10-18T01:04:08.154Z,3.53
2022-10-18T01:06:43.024Z,3.75
2022-10-18T01:09:20.292Z,3.72
2022-10-18T01:12:15.762Z,3.60
2022-10-18T01:14:51.033Z,3.67
2022-10-18T01:17:27.056Z,3.38
2022-10-18T01:20:08.501Z,3.20
2022-10-18T01:22:40.708Z,3.65
2022-10-18T01:25:25.291Z,3.50
2022-10-18T01:28:00.179Z,4.10
2022-10-18T01:31:00.968Z,3.90
2022-10-18T01:33:38.583Z,3.67
2022-10-18T01:36:11.870Z,4.03
2022-10-18T01:38:42.747Z,3.33
2022-10-18T01:41:15.821Z,3.60
2022-10-18T01:43:47.653Z,3.35
2022-10-18T01:46:21.299Z,3.72
2022-10-18T01:48:50.278Z,3.50
2022-10-18T01:51:20.659Z,3.20
2022-10-18T01:53:48.870Z,3.50
2022-10-18T01:56:26.638Z,3.20
2022-10-18T01:59:04.730Z,2.83
2022-10-18T02:01:43.554Z,3.53
2022-10-18T02:04:21.451Z,3.40
2022-10-18T02:06:55.039Z,3.05
2022-10-18T02:09:39.309Z,3.10
2022-10-18T02:12:13.176Z,3.50
2022-10-18T02:14:43.097Z,3.33
2022-10-18T02:17:14.093Z,3.30
2022-10-18T02:19:45.452Z,3.33
2022-10-18T02:22:15.284Z,3.17
2022-10-18T02:24:46.223Z,2.97
2022-10-18T02:27:14.784Z,3.10
2022-10-18T02:29:45.102Z,3.15
2022-10-18T02:32:21.542Z,3.00
2022-10-18T02:34:58.252Z,3.40
2022-10-18T02:37:30.018Z,3.05
2022-10-18T02:39:58.633Z,3.55
2022-10-18T02:42:26.828Z,3.10
2022-10-18T02:44:55.049Z,3.50
2022-10-18T02:47:24.689Z,3.30
2022-10-18T02:49:53.031Z,3.22
2022-10-18T02:52:21.163Z,3.17
2022-10-18T02:54:49.563Z,3.28
2022-10-18T02:57:17.740Z,3.50
2022-10-18T02:59:45.989Z,3.33
2022-10-18T03:02:14.195Z,3.45
2022-10-18T03:04:43.822Z,2.85
2022-10-18T03:07:12.000Z,3.10
2022-10-18T03:09:40.324Z,3.20
2022-10-18T03:12:08.659Z,2.63
2022-10-18T03:14:36.929Z,3.05
2022-10-18T03:17:05.229Z,2.70
2022-10-18T03:19:33.480Z,2.92
2022-10-18T03:22:03.107Z,3.00
2022-10-18T03:24:31.301Z,2.88
2022-10-18T03:26:59.619Z,2.75
2022-10-18T03:29:27.972Z,3.03
2022-10-18T03:31:56.156Z,2.85
2022-10-18T03:34:24.467Z,3.00
2022-10-18T03:36:52.637Z,2.92
2022-10-18T03:39:22.363Z,3.05
2022-10-18T03:41:51.009Z,3.00
2022-10-18T03:44:19.258Z,2.78
2022-10-18T03:46:47.443Z,2.80
2022-10-18T03:49:15.817Z,2.80
2022-10-18T03:51:44.027Z,2.60
2022-10-18T03:54:12.257Z,2.90
2022-10-18T03:56:41.833Z,3.10
2022-10-18T03:59:10.063Z,3.33
2022-10-18T04:01:38.353Z,3.70
2022-10-18T04:04:06.673Z,2.63
2022-10-18T04:06:34.839Z,2.90
2022-10-18T04:09:05.284Z,2.75
2022-10-18T04:11:36.301Z,2.83
2022-10-18T04:14:05.909Z,2.80
2022-10-18T04:16:34.142Z,3.00
2022-10-18T04:19:02.468Z,3.30
2022-10-18T04:21:30.720Z,3.38
2022-10-18T04:23:58.992Z,3.10
2022-10-18T04:26:27.296Z,2.80
2022-10-18T04:28:55.629Z,3.10
2022-10-18T04:31:25.368Z,3.35
2022-10-18T04:33:53.722Z,3.40
2022-10-18T04:36:22.000Z,2.92
2022-10-18T04:38:50.137Z,3.13
2022-10-18T04:41:18.454Z,3.08
2022-10-18T04:43:46.712Z,3.00
2022-10-18T04:46:14.940Z,3.33
2022-10-18T04:48:44.550Z,2.92
2022-10-18T04:51:12.838Z,3.30
2022-10-18T04:53:41.039Z,2.85
2022-10-18T04:56:09.832Z,3.53
2022-10-18T04:58:38.155Z,3.00
2022-10-18T05:01:07.373Z,3.08
2022-10-18T05:03:35.684Z,3.08
2022-10-18T05:06:05.438Z,3.00
2022-10-18T05:08:35.360Z,2.95
2022-10-18T05:11:04.759Z,3.00
2022-10-18T05:13:33.084Z,3.55
2022-10-18T05:16:02.513Z,3.60
2022-10-18T05:18:30.741Z,3.08
2022-10-18T05:20:59.052Z,2.65
2022-10-18T05:23:28.684Z,2.63
2022-10-18T05:26:01.915Z,2.88
2022-10-18T05:28:45.671Z,3.00
2022-10-18T05:31:14.368Z,2.60
2022-10-18T05:33:42.710Z,2.67
2022-10-18T05:36:11.212Z,2.75
2022-10-18T05:38:43.373Z,2.63
2022-10-18T05:41:12.279Z,2.50
2022-10-18T05:43:40.924Z,2.67
2022-10-18T05:46:13.909Z,2.78
2022-10-18T05:48:44.116Z,2.60
2022-10-18T05:51:12.586Z,2.30
2022-10-18T05:53:42.205Z,2.30
2022-10-18T05:56:11.985Z,2.63
2022-10-18T05:58:40.701Z,2.50
2022-10-18T06:01:09.865Z,3.03
2022-10-18T06:03:38.467Z,3.10
2022-10-18T06:06:08.910Z,2.60
2022-10-18T06:08:38.678Z,2.95
2022-10-18T06:11:13.528Z,3.38
2022-10-18T06:13:42.704Z,3.10
2022-10-18T06:16:12.380Z,3.35
2022-10-18T06:18:40.898Z,3.22
2022-10-18T06:21:09.980Z,3.20
2022-10-18T06:23:38.777Z,3.05
2022-10-18T06:26:08.856Z,3.42
2022-10-18T06:28:39.289Z,4.38
2022-10-18T06:31:08.358Z,3.72
2022-10-18T06:33:37.851Z,3.80
2022-10-18T06:36:07.838Z,3.58
2022-10-18T06:38:36.466Z,3.90
2022-10-18T06:41:06.006Z,3.75
2022-10-18T06:43:34.422Z,3.17
2022-10-18T06:46:06.937Z,3.67
2022-10-18T06:48:35.518Z,3.85
2022-10-18T06:51:05.755Z,3.63
2022-10-18T06:53:40.742Z,3.55
2022-10-18T06:56:14.048Z,3.05
2022-10-18T06:58:42.342Z,2.88
2022-10-18T07:01:13.899Z,3.05
2022-10-18T07:06:13.368Z,3.30
2022-10-18T07:08:42.042Z,2.65
2022-10-18T07:11:15.015Z,3.38
2022-10-18T07:13:43.807Z,3.60
2022-10-18T07:16:17.459Z,3.67
2022-10-18T07:18:50.347Z,3.15
2022-10-18T07:21:20.495Z,3.30
2022-10-18T07:23:49.263Z,3.50
2022-10-18T07:26:20.160Z,3.17
2022-10-18T07:28:50.845Z,3.63
2022-10-18T07:31:20.600Z,3.63
2022-10-18T07:33:48.799Z,3.10
2022-10-18T07:36:17.166Z,3.50
2022-10-18T07:38:45.680Z,3.55
2022-10-18T07:41:15.561Z,3.30
2022-10-18T07:43:45.850Z,3.17
2022-10-18T07:46:14.896Z,3.92
2022-10-18T07:48:44.445Z,4.50
2022-10-18T07:51:13.402Z,5.32
2022-10-18T07:53:41.675Z,4.78
2022-10-18T07:56:16.082Z,3.65
2022-10-18T07:58:45.000Z,3.67
2022-10-18T08:01:14.097Z,4.32
2022-10-18T08:03:44.697Z,4.30
2022-10-18T08:06:16.226Z,4.18
2022-10-18T08:08:44.776Z,4.50
2022-10-18T08:11:15.852Z,4.30
2022-10-18T08:13:44.461Z,4.10
2022-10-18T08:16:15.001Z,4.00
2022-10-18T08:18:44.995Z,4.15
2022-10-18T08:21:15.297Z,3.92
2022-10-18T08:23:43.775Z,3.80
2022-10-18T08:26:14.580Z,3.78
2022-10-18T08:28:49.091Z,3.67
2022-10-18T08:31:27.056Z,3.75
2022-10-18T08:33:57.984Z,4.05
2022-10-18T08:36:26.433Z,4.00
2022-10-18T08:38:54.742Z,3.85
2022-10-18T08:42:02.538Z,4.13
2022-10-18T08:44:33.816Z,3.95
2022-10-18T08:47:05.505Z,3.75
2022-10-18T08:52:14.401Z,3.88
2022-10-18T08:54:53.399Z,3.20
2022-10-18T08:57:22.435Z,3.83
2022-10-18T08:59:50.717Z,3.65
2022-10-18T09:02:31.109Z,3.60
2022-10-18T09:05:07.935Z,3.60
2022-10-18T09:08:01.167Z,3.60
2022-10-18T09:10:50.349Z,4.38
2022-10-18T09:13:54.105Z,4.00
2022-10-18T09:16:28.958Z,4.63
2022-10-18T09:19:05.347Z,3.58
2022-10-18T09:21:46.706Z,3.97
2022-10-18T09:24:19.779Z,4.00
2022-10-18T09:26:50.005Z,4.35
2022-10-18T09:29:34.131Z,4.65
2022-10-18T09:32:15.289Z,4.05
2022-10-18T09:34:48.687Z,4.03
2022-10-18T09:37:20.795Z,4.35
2022-10-18T09:39:51.468Z,5.05
2022-10-18T09:42:26.769Z,4.55
2022-10-18T09:45:00.632Z,4.82
2022-10-18T09:47:33.575Z,4.35
2022-10-18T09:50:14.531Z,4.03
2022-10-18T09:52:50.244Z,5.05
2022-10-18T09:55:25.069Z,4.43
2022-10-18T09:57:56.788Z,4.28
2022-10-18T10:02:55.561Z,4.38
2022-10-18T10:05:23.777Z,4.00
2022-10-18T10:07:59.665Z,3.90
2022-10-18T10:10:30.969Z,4.32
2022-10-18T10:13:08.014Z,4.03
2022-10-18T10:15:38.336Z,4.38
2022-10-18T10:18:20.126Z,4.50
2022-10-18T10:20:51.647Z,3.92
2022-10-18T10:23:26.420Z,4.10
2022-10-18T10:25:56.611Z,4.43
2022-10-18T10:28:28.570Z,4.70
2022-10-18T10:31:26.843Z,4.65
2022-10-18T10:34:01.621Z,4.20
2022-10-18T10:36:30.442Z,3.97
2022-10-18T10:39:08.995Z,4.47
2022-10-18T10:41:38.894Z,5.35
2022-10-18T10:44:16.509Z,4.32
2022-10-18T10:46:44.781Z,4.03
2022-10-18T10:49:39.051Z,4.57
2022-10-18T10:52:26.917Z,4.57
2022-10-18T10:55:17.015Z,4.10
2022-10-18T10:57:48.917Z,4.47
2022-10-18T11:00:40.556Z,4.13
2022-10-18T11:03:27.854Z,4.20
2022-10-18T11:05:58.045Z,4.25
2022-10-18T11:08:29.377Z,3.78
2022-10-18T11:11:16.969Z,4.07
2022-10-18T11:13:57.044Z,4.18
2022-10-18T11:16:52.321Z,4.20
2022-10-18T11:19:34.160Z,4.05
2022-10-18T11:24:33.375Z,3.75
2022-10-18T11:27:08.819Z,4.00
2022-10-18T11:30:08.294Z,4.45
2022-10-18T11:32:49.748Z,4.30
2022-10-18T11:35:32.759Z,4.20
2022-10-18T11:38:12.322Z,3.92
2022-10-18T11:40:53.578Z,4.20
2022-10-18T11:43:34.441Z,4.57
2022-10-18T11:46:20.499Z,5.00
2022-10-18T11:49:04.143Z,6.05
2022-10-18T11:52:03.131Z,5.68
2022-10-18T11:54:44.755Z,8.02
2022-10-18T11:57:27.063Z,7.63
2022-10-18T12:00:03.418Z,6.78
2022-10-18T12:03:00.508Z,5.85
2022-10-18T12:05:30.105Z,5.80
2022-10-18T12:08:03.698Z,6.78
2022-10-18T12:10:44.328Z,6.40
2022-10-18T12:13:29.045Z,6.10
2022-10-18T12:15:59.310Z,6.45
2022-10-18T12:18:29.424Z,6.20
2022-10-18T12:20:59.858Z,5.70
2022-10-18T12:23:39.285Z,5.13
2022-10-18T12:26:09.252Z,4.95
2022-10-18T12:28:50.903Z,4.85
2022-10-18T12:33:56.260Z,5.15
2022-10-18T12:36:39.870Z,5.07
2022-10-18T12:39:12.625Z,5.40
2022-10-18T12:41:40.945Z,5.18
2022-10-18T12:44:20.935Z,4.93
2022-10-18T12:46:54.013Z,4.32
2022-10-18T12:49:28.593Z,4.63
2022-10-18T12:51:59.524Z,4.85
2022-10-18T12:54:31.667Z,4.15
2022-10-18T12:57:01.580Z,4.72
2022-10-18T12:59:53.934Z,4.25
2022-10-18T13:02:27.319Z,4.47
2022-10-18T13:04:56.944Z,4.07
2022-10-18T13:07:43.396Z,3.70
2022-10-18T13:10:38.855Z,4.47
2022-10-18T13:13:41.753Z,4.10
2022-10-18T13:16:28.751Z,4.65
2022-10-18T13:19:01.341Z,3.97
2022-10-18T13:21:41.950Z,3.67
2022-10-18T13:24:26.168Z,3.63
2022-10-18T13:27:36.651Z,3.55
2022-10-18T13:30:33.405Z,3.83
2022-10-18T13:33:18.877Z,4.38
2022-10-18T13:35:57.611Z,3.70
2022-10-18T13:38:42.292Z,5.38
2022-10-18T13:41:12.549Z,4.43
2022-10-18T13:44:13.578Z,5.32
2022-10-18T13:47:16.211Z,4.93
2022-10-18T13:50:08.350Z,4.90
2022-10-18T13:52:54.430Z,5.00
2022-10-18T13:55:46.460Z,5.43
2022-10-18T13:58:24.100Z,4.93
2022-10-18T14:01:04.815Z,4.43
2022-10-18T14:04:04.205Z,4.70
2022-10-18T14:06:36.437Z,4.63
2022-10-18T14:09:25.405Z,7.38
2022-10-18T14:12:02.373Z,6.32
2022-10-18T14:14:36.528Z,5.63
2022-10-18T14:17:18.067Z,5.78
2022-10-18T14:19:52.011Z,5.85
2022-10-18T14:22:24.865Z,4.93
2022-10-18T14:24:56.510Z,4.63
2022-10-18T14:30:14.877Z,4.75
2022-10-18T14:32:45.973Z,5.30
2022-10-18T14:35:37.893Z,5.03
2022-10-18T14:40:40.117Z,5.88
2022-10-18T14:43:13.356Z,8.65
2022-10-18T14:45:41.976Z,7.68
2022-10-18T14:48:16.614Z,7.07
2022-10-18T14:50:48.389Z,8.68
2022-10-18T14:55:54.954Z,7.80
2022-10-18T14:58:23.751Z,7.32
2022-10-18T15:00:52.131Z,7.63
2022-10-18T15:03:20.771Z,7.78
2022-10-18T15:05:59.370Z,7.13
2022-10-18T15:08:32.298Z,6.65
2022-10-18T15:11:02.347Z,6.15
2022-10-18T15:13:33.449Z,6.85
2022-10-18T15:16:02.433Z,5.95
2022-10-18T15:21:22.984Z,4.70
2022-10-18T15:23:52.333Z,4.82
2022-10-18T15:26:26.705Z,4.00
2022-10-18T15:29:00.421Z,4.57
2022-10-18T15:31:34.849Z,4.07
2022-10-18T15:34:11.690Z,4.28
2022-10-18T15:36:40.299Z,4.10
2022-10-18T15:39:14.769Z,4.28
2022-10-18T15:41:49.153Z,4.20
2022-10-18T15:44:23.560Z,3.70
2022-10-18T15:46:54.070Z,4.20
2022-10-18T15:49:56.173Z,65.18
2022-10-18T15:55:56.330Z,135.75
2022-10-18T15:58:28.557Z,150.55
2022-10-18T16:01:00.550Z,140.35
2022-10-18T16:03:29.821Z,146.52
2022-10-18T16:06:03.926Z,119.40
2022-10-18T16:08:37.113Z,97.85
2022-10-18T16:11:05.462Z,80.03
2022-10-18T16:13:35.413Z,125.28
2022-10-18T16:16:03.827Z,119.80
2022-10-18T16:18:32.106Z,130.02
2022-10-18T16:21:01.922Z,147.63
2022-10-18T16:23:30.592Z,136.50
2022-10-18T16:25:58.884Z,102.07
2022-10-18T16:28:27.363Z,91.20
2022-10-18T16:31:00.044Z,101.50
2022-10-18T16:33:28.684Z,106.75
2022-10-18T16:35:57.122Z,102.30
2022-10-18T16:38:34.281Z,94.53
2022-10-18T16:41:04.500Z,69.93
2022-10-18T16:43:33.247Z,57.85
2022-10-18T16:46:04.111Z,56.60
2022-10-18T16:48:33.005Z,50.73
2022-10-18T16:51:01.283Z,39.72
2022-10-18T16:53:29.771Z,28.80
2022-10-18T16:55:59.983Z,21.48
2022-10-18T16:58:30.300Z,24.67
2022-10-18T17:01:01.010Z,21.23
2022-10-18T17:03:32.552Z,17.80
2022-10-18T17:06:00.894Z,19.83
2022-10-18T17:08:30.385Z,16.65
2022-10-18T17:11:00.019Z,13.98
2022-10-18T17:13:28.335Z,13.73
2022-10-18T17:15:56.985Z,13.52
2022-10-18T17:18:27.639Z,11.77
2022-10-18T17:20:59.256Z,11.25
2022-10-18T17:23:27.698Z,10.63
2022-10-18T17:26:08.515Z,10.65
2022-10-18T17:28:43.537Z,10.15
2022-10-18T17:31:11.813Z,8.77
2022-10-18T17:33:39.995Z,8.68
2022-10-18T17:36:09.810Z,8.13
2022-10-18T17:38:38.157Z,8.82
2022-10-18T17:41:08.018Z,8.23
2022-10-18T17:43:37.856Z,7.80
2022-10-18T17:46:06.391Z,8.90
2022-10-18T17:48:34.834Z,8.27
2022-10-18T17:51:10.331Z,7.45
2022-10-18T17:53:38.626Z,8.63
2022-10-18T17:56:07.764Z,7.55
2022-10-18T17:58:36.446Z,7.47
2022-10-18T18:01:12.961Z,8.60
2022-10-18T18:03:41.876Z,7.47
2022-10-18T18:06:15.924Z,7.50
2022-10-18T18:08:44.315Z,7.43
2022-10-18T18:11:13.260Z,7.15
2022-10-18T18:13:41.578Z,7.00
2022-10-18T18:16:18.054Z,6.85
2022-10-18T18:18:47.098Z,6.03
2022-10-18T18:21:16.615Z,6.10
2022-10-18T18:23:45.597Z,6.53
2022-10-18T18:26:16.184Z,6.03
2022-10-18T18:28:45.092Z,6.22
2022-10-18T18:31:15.266Z,6.60
2022-10-18T18:33:43.936Z,6.30
2022-10-18T18:36:13.329Z,26.95
2022-10-18T18:38:43.550Z,79.47
2022-10-18T18:41:14.089Z,248.70
2022-10-18T18:43:44.045Z,131.10
2022-10-18T18:46:13.741Z,221.98
2022-10-18T18:48:41.952Z,155.07
2022-10-18T18:51:13.256Z,118.90
2022-10-18T18:53:44.040Z,143.80
2022-10-18T18:56:14.943Z,173.27
2022-10-18T18:58:45.001Z,200.98
2022-10-18T19:01:17.288Z,190.25
2022-10-18T19:03:47.132Z,166.13
2022-10-18T19:06:18.086Z,113.88
2022-10-18T19:08:48.492Z,86.95
2022-10-18T19:11:18.679Z,71.88
2022-10-18T19:13:48.830Z,68.22
2022-10-18T19:16:35.340Z,45.78
2022-10-18T19:19:06.533Z,35.05
2022-10-18T19:21:35.815Z,28.42
2022-10-18T19:24:06.312Z,23.95
2022-10-18T19:26:36.711Z,19.90
2022-10-18T19:29:09.784Z,16.20
2022-10-18T19:31:38.649Z,15.55
2022-10-18T19:34:07.948Z,12.10
2022-10-18T19:36:36.958Z,11.52
2022-10-18T19:39:08.242Z,12.48
2022-10-18T19:41:36.827Z,9.95
2022-10-18T19:44:05.324Z,9.70
2022-10-18T19:46:33.851Z,8.82
2022-10-18T19:49:02.452Z,8.60
2022-10-18T19:51:31.115Z,8.20
2022-10-18T19:53:59.917Z,7.75
2022-10-18T19:56:30.481Z,7.53
2022-10-18T19:58:59.449Z,7.05
2022-10-18T20:01:28.944Z,6.68
2022-10-18T20:03:57.539Z,6.65
2022-10-18T20:06:26.171Z,7.07
2022-10-18T20:08:54.669Z,6.45
2022-10-18T20:11:24.428Z,6.72
2022-10-18T20:13:54.636Z,6.47
2022-10-18T20:16:28.206Z,6.03
2022-10-18T20:18:58.457Z,6.70
2022-10-18T20:21:28.245Z,6.22
2022-10-18T20:23:56.901Z,6.60
2022-10-18T20:26:26.509Z,6.40
2022-10-18T20:28:58.236Z,6.75
2022-10-18T20:31:28.341Z,6.55
2022-10-18T20:33:57.347Z,6.65
2022-10-18T20:36:26.176Z,6.00
2022-10-18T20:38:55.041Z,6.00
2022-10-18T20:41:24.719Z,6.38
2022-10-18T20:43:53.794Z,6.05
2022-10-18T20:46:23.905Z,6.63
2022-10-18T20:48:53.002Z,6.47
2022-10-18T20:51:22.103Z,6.80
2022-10-18T20:53:51.008Z,5.80
2022-10-18T20:56:21.168Z,6.80
2022-10-18T20:58:50.611Z,7.30
2022-10-18T21:01:20.194Z,6.72
2022-10-18T21:03:50.994Z,6.35
2022-10-18T21:06:20.536Z,6.32
2022-10-18T21:08:49.253Z,6.50
2022-10-18T21:11:17.792Z,6.38
2022-10-18T21:13:46.224Z,6.07
2022-10-18T21:16:14.730Z,5.65
2022-10-18T21:18:43.234Z,6.30
2022-10-18T21:23:47.466Z,6.57
2022-10-18T21:26:17.158Z,9.57
2022-10-18T21:28:45.830Z,83.35
2022-10-18T21:31:15.899Z,100.22
2022-10-18T21:33:44.926Z,109.10
2022-10-18T21:36:15.364Z,147.40
2022-10-18T21:38:46.026Z,141.85
2022-10-18T21:41:15.018Z,121.20
2022-10-18T21:43:44.233Z,106.60
2022-10-18T21:46:13.067Z,85.28
2022-10-18T21:48:44.084Z,106.97
2022-10-18T21:51:13.010Z,68.05
2022-10-18T21:53:43.960Z,49.20
2022-10-18T21:56:14.849Z,45.83
2022-10-18T21:58:43.378Z,56.90
2022-10-18T22:01:12.775Z,75.03
2022-10-18T22:03:41.533Z,70.22
2022-10-18T22:06:13.960Z,66.53
2022-10-18T22:08:44.861Z,71.80
2022-10-18T22:11:13.853Z,93.93
2022-10-18T22:13:42.502Z,82.90
2022-10-18T22:16:14.266Z,58.60
2022-10-18T22:18:43.034Z,44.83
2022-10-18T22:21:12.692Z,31.25
2022-10-18T22:23:42.609Z,22.65
2022-10-18T22:26:13.553Z,16.02
2022-10-18T22:28:42.922Z,13.23
2022-10-18T22:31:15.704Z,10.45
2022-10-18T22:33:44.298Z,9.10
2022-10-18T22:36:13.056Z,7.90
2022-10-18T22:38:41.703Z,7.68
2022-10-18T22:41:12.068Z,6.95
2022-10-18T22:43:42.084Z,7.00
2022-10-18T22:46:11.079Z,5.45
2022-10-18T22:48:39.582Z,5.65
2022-10-18T22:51:08.880Z,5.85
2022-10-18T22:53:37.939Z,5.60
2022-10-18T22:56:07.016Z,5.82
2022-10-18T22:58:35.591Z,5.47
2022-10-18T23:01:06.613Z,5.40
2022-10-18T23:03:35.863Z,5.95
2022-10-18T23:06:04.791Z,5.20
2022-10-18T23:08:33.862Z,5.10
2022-10-18T23:11:02.456Z,5.25
2022-10-18T23:13:31.090Z,5.30
2022-10-18T23:16:04.668Z,5.40
2022-10-18T23:18:34.964Z,5.15
2022-10-18T23:21:04.353Z,5.93
2022-10-18T23:23:35.549Z,5.78
2022-10-18T23:26:05.094Z,5.32
2022-10-18T23:28:35.426Z,4.97
2022-10-18T23:31:07.879Z,5.65
2022-10-18T23:33:37.992Z,5.03
2022-10-18T23:36:06.926Z,5.00
2022-10-18T23:38:35.976Z,5.00
2022-10-18T23:41:04.825Z,4.75
2022-10-18T23:43:33.284Z,4.90
2022-10-18T23:46:02.083Z,4.90
2022-10-18T23:48:30.959Z,5.25
2022-10-18T23:51:00.871Z,5.20
2022-10-18T23:53:29.627Z,5.57
2022-10-18T23:55:59.166Z,5.38
2022-10-18T23:58:28.322Z,5.63
